EDT,Max TemperatureF,Mean TemperatureF,Min TemperatureF,Max Dew PointF,MeanDew PointF,Min DewpointF,Max Humidity, Mean Humidity, Min Humidity, Max Sea Level PressureIn, Mean Sea Level PressureIn, Min Sea Level PressureIn, Max VisibilityMiles, Mean VisibilityMiles, Min VisibilityMiles, Max Wind SpeedMPH, Mean Wind SpeedMPH, Max Gust SpeedMPH,PrecipitationIn, CloudCover, Events, WindDirDegrees
2013-3-1,67,62,56,51,42,35,77,56,34,30.00,29.97,29.92,10,10,10,15,8,20,0.00,4,,281
2013-3-2,60,51,41,40,34,30,76,56,36,30.04,30.01,29.97,10,10,10,22,10,28,0.00,3,,303
2013-3-3,61,50,39,37,32,28,86,60,33,30.17,30.05,29.99,10,10,10,28,11,36,0.00,1,,292
2013-3-4,63,47,31,38,31,23,82,53,23,30.25,30.19,30.15,10,10,10,17,7,23,0.00,0,,348
2013-3-5,75,57,38,57,48,36,89,64,38,30.19,30.12,30.06,10,10,10,18,7,22,0.00,0,,178
2013-3-6,73,61,49,60,42,19,93,55,16,30.13,30.03,29.96,10,10,9,28,14,35,0.02,2,Rain,261
2013-3-7,67,55,42,48,40,30,86,67,48,30.21,30.16,30.10,10,10,10,16,8,20,0.00,0,,341
2013-3-8,70,57,43,49,45,40,92,65,37,30.24,30.19,30.14,10,9,6,15,6,20,0.00,0,,360
2013-3-9,74,61,47,52,49,44,93,69,44,30.23,30.19,30.14,10,10,8,16,6,24,0.00,1,,36
2013-3-10,77,65,52,56,53,48,86,65,43,30.18,30.14,30.11,10,10,10,20,8,25,0.00,2,,88
2013-3-11,78,70,62,60,57,55,78,63,47,30.12,30.04,29.97,10,10,10,23,12,29,0.00,2,,126
2013-3-12,78,70,62,68,63,59,87,75,62,30.01,29.96,29.91,10,10,7,22,10,28,0.01,4,,207
2013-3-13,73,61,48,57,49,42,89,62,35,30.15,30.09,30.01,10,10,10,21,10,26,0.00,0,,339
2013-3-14,66,55,44,47,41,35,80,59,37,30.24,30.19,30.13,10,10,10,22,12,29,0.00,0,,345
2013-3-15,70,56,41,46,42,38,89,64,39,30.28,30.23,30.18,10,10,10,10,5,22,0.00,0,,346
2013-3-16,77,58,39,52,44,37,96,61,25,30.22,30.15,30.09,10,9,2,18,7,23,0.00,0,,199
2013-3-17,77,61,45,57,52,43,89,68,46,30.18,30.11,30.04,10,10,9,17,7,23,0.00,1,,169
2013-3-18,84,73,62,66,62,56,87,67,47,30.08,30.02,29.93,10,10,10,28,9,30,0.02,4,Rain-Thunderstorm,186
2013-3-19,81,71,61,66,63,60,100,77,54,30.02,29.96,29.91,10,9,3,12,4,15,0.00,2,,42
2013-3-20,84,71,57,67,60,55,100,73,45,29.98,29.92,29.81,10,5,0,23,7,31,0.00,3,Fog,241
2013-3-21,71,59,46,61,46,32,93,59,25,29.96,29.91,29.85,10,10,10,16,7,22,0.00,2,,338
2013-3-22,76,59,42,66,51,38,89,64,38,30.04,29.97,29.92,10,10,7,20,8,24,0.06,4,Rain-Thunderstorm,115
2013-3-23,90,79,67,72,67,62,97,70,43,29.99,29.93,29.78,10,8,1,23,8,32,0.50,5,Rain-Thunderstorm,181
2013-3-24,91,80,69,72,67,64,93,67,41,29.88,29.74,29.66,10,9,2,35,14,45,0.49,6,Rain-Thunderstorm,215
2013-3-25,78,66,54,72,52,29,93,56,19,30.02,29.84,29.74,10,9,7,20,12,24,0.00,2,,282
2013-3-26,66,56,46,39,29,21,63,41,19,30.22,30.11,30.02,10,10,10,26,13,32,0.00,1,,305
2013-3-27,63,53,43,40,35,29,83,60,36,30.30,30.24,30.20,10,10,10,16,8,21,0.00,0,,349
2013-3-28,69,55,41,43,40,36,83,57,30,30.30,30.25,30.21,10,10,10,15,6,21,0.00,0,,350
2013-3-29,73,59,44,50,44,40,86,60,33,30.33,30.27,30.24,10,10,10,15,6,20,0.00,0,,12
2013-3-30,77,62,46,52,49,44,93,66,38,30.28,30.23,30.17,10,10,10,18,8,26,0.00,1,,140
2013-3-31,81,67,53,64,57,49,89,66,42,30.19,30.12,30.04,10,10,10,25,11,30,0.00,1,,178